Map

Track Data

SID SEASON NUMBER BASIN SUBBASIN NAME ISO_TIME NATURE LAT LON WMO_WIND WMO_PRES WMO_AGENCY TRACK_TYPE DIST2LAND LANDFALL IFLAG USA_AGENCY USA_ATCF_ID USA_LAT USA_LON USA_RECORD USA_STATUS USA_WIND USA_PRES USA_SSHS USA_R34_NE USA_R34_SE USA_R34_SW USA_R34_NW USA_R50_NE USA_R50_SE USA_R50_SW USA_R50_NW USA_R64_NE USA_R64_SE USA_R64_SW USA_R64_NW USA_POCI USA_ROCI USA_RMW USA_EYE TOKYO_LAT TOKYO_LON TOKYO_GRADE TOKYO_WIND TOKYO_PRES TOKYO_R50_DIR TOKYO_R50_LONG TOKYO_R50_SHORT TOKYO_R30_DIR TOKYO_R30_LONG TOKYO_R30_SHORT TOKYO_LAND CMA_LAT CMA_LON CMA_CAT CMA_WIND CMA_PRES HKO_LAT HKO_LON HKO_CAT HKO_WIND HKO_PRES NEWDELHI_LAT NEWDELHI_LON NEWDELHI_GRADE NEWDELHI_WIND NEWDELHI_PRES NEWDELHI_CI NEWDELHI_DP NEWDELHI_POCI REUNION_LAT REUNION_LON REUNION_TYPE REUNION_WIND REUNION_PRES REUNION_TNUM REUNION_CI REUNION_RMW REUNION_R34_NE REUNION_R34_SE REUNION_R34_SW REUNION_R34_NW REUNION_R50_NE REUNION_R50_SE REUNION_R50_SW REUNION_R50_NW REUNION_R64_NE REUNION_R64_SE REUNION_R64_SW REUNION_R64_NW BOM_LAT BOM_LON BOM_TYPE BOM_WIND BOM_PRES BOM_TNUM BOM_CI BOM_RMW BOM_R34_NE BOM_R34_SE BOM_R34_SW BOM_R34_NW BOM_R50_NE BOM_R50_SE BOM_R50_SW BOM_R50_NW BOM_R64_NE BOM_R64_SE BOM_R64_SW BOM_R64_NW BOM_ROCI BOM_POCI BOM_EYE BOM_POS_METHOD BOM_PRES_METHOD NADI_LAT NADI_LON NADI_CAT NADI_WIND NADI_PRES WELLINGTON_LAT WELLINGTON_LON WELLINGTON_WIND WELLINGTON_PRES DS824_LAT DS824_LON DS824_STAGE DS824_WIND DS824_PRES TD9636_LAT TD9636_LON TD9636_STAGE TD9636_WIND TD9636_PRES TD9635_LAT TD9635_LON TD9635_WIND TD9635_PRES TD9635_ROCI NEUMANN_LAT NEUMANN_LON NEUMANN_CLASS NEUMANN_WIND NEUMANN_PRES MLC_LAT MLC_LON MLC_CLASS MLC_WIND MLC_PRES USA_GUST BOM_GUST BOM_GUST_PER REUNION_GUST REUNION_GUST_PER USA_SEAHGT USA_SEARAD_NE USA_SEARAD_SE USA_SEARAD_SW USA_SEARAD_NW STORM_SPEED STORM_DIR
1984077S12149 1984 27 SP EA KATHY 1984-03-16 18:00:00 NR -12.0000 148.500 20 1006 bom main 198 198 ______O___O___ -1 -12.0000 148.500 20 20 1006 1.00000 -12.0000 148.500 1 45 45 2 270
1984077S12149 1984 27 SP EA KATHY 1984-03-16 21:00:00 NR -12.0000 148.400 main 201 201 ______P___P___ -1 -12.0000 148.400 20 20 1007 -12.0000 148.399 1 2 270
1984077S12149 1984 27 SP EA KATHY 1984-03-17 00:00:00 NR -12.0000 148.300 20 1008 bom main 201 201 ______O___O___ -1 -12.0000 148.300 20 20 1008 1.00000 -12.0000 148.300 1 45 45 2 270
1984077S12149 1984 27 SP EA KATHY 1984-03-17 03:00:00 NR -12.0000 148.202 main 202 201 ______P___P___ -1 -12.0000 148.200 20 20 1006 -12.0000 148.203 1 2 270
1984077S12149 1984 27 SP EA KATHY 1984-03-17 06:00:00 NR -12.0000 148.103 20 1005 bom main 201 201 ______O___P___ -1 -12.0000 148.100 20 20 1005 1.00000 -12.0000 148.107 1 45 45 2 270
1984077S12149 1984 27 SP EA KATHY 1984-03-17 09:00:00 NR -12.0000 148.003 main 201 201 ______P___P___ -1 -12.0000 148.000 20 20 1005 -12.0000 148.007 1 2 270
1984077S12149 1984 27 SP EA KATHY 1984-03-17 12:00:00 NR -12.0000 147.900 20 1006 bom main 201 201 ______O___O___ -1 -12.0000 147.900 20 20 1006 1.00000 -12.0000 147.900 1 45 45 2 270
1984077S12149 1984 27 SP EA KATHY 1984-03-17 15:00:00 NR -12.0000 147.805 main 202 202 ______P___P___ -1 -12.0000 147.807 20 20 1005 -11.9999 147.802 1 2 270
1984077S12149 1984 27 SP EA KATHY 1984-03-17 18:00:00 NR -11.9999 147.697 20 1004 bom main 204 204 ______O___P___ -1 -12.0000 147.700 20 20 1004 1.50000 -11.9999 147.695 1 45 45 2 270
1984077S12149 1984 27 SP EA KATHY 1984-03-17 21:00:00 NR -11.9999 147.565 main 206 206 ______P___P___ -1 -12.0000 147.565 20 25 1002 -11.9999 147.565 1 3 270
1984077S12149 1984 27 SP EA KATHY 1984-03-18 00:00:00 NR -12.0000 147.400 30 1000 bom main 211 211 ______O___O___ -1 -12.0000 147.400 20 30 1000 2.50000 -12.0000 147.400 1 45 45 3 271
1984077S12149 1984 27 SP EA KATHY 1984-03-18 03:00:00 NR -11.9958 147.224 main 219 219 ______P___P___ -1 -12.0000 147.223 20 35 995 -11.9916 147.226 1 4 271
1984077S12149 1984 27 SP EA KATHY 1984-03-18 06:00:00 NR -11.9923 147.006 40 990 bom main 226 226 ______O___P___ -1 -12.0000 147.000 30 40 990 3.00000 -11.9845 147.012 1 55 55 5 270
1984077S12149 1984 27 SP EA KATHY 1984-03-18 09:00:00 NR -11.9926 146.738 main 239 239 ______P___P___ -1 -12.0000 146.734 30 40 990 -11.9852 146.742 1 6 269
1984077S12149 1984 27 SP EA KATHY 1984-03-18 12:00:00 NR -12.0000 146.400 40 990 bom main 255 255 ______O___O___ -1 -12.0000 146.400 30 40 990 3.00000 -12.0000 146.400 1 55 55 8 268
1984077S12149 1984 27 SP EA KATHY 1984-03-18 15:00:00 NR -12.0181 145.970 40 990 bom main 282 235 ______O___P___ -1 -12.0000 146.000 30 40 990 3.00000 -12.0362 145.940 1 55 55 9 264
1984077S12149 1984 27 SP EA KATHY 1984-03-18 18:00:00 NR -12.0929 145.508 40 990 bom main 235 190 ______O___P___ -1 -12.1000 145.600 30 40 990 3.00000 -12.0859 145.415 1 55 55 9 260
1984077S12149 1984 27 SP EA KATHY 1984-03-18 21:00:00 NR -12.1712 145.042 40 990 bom main 179 137 ______O___P___ -1 -12.2000 145.200 30 40 990 3.00000 -12.1425 144.883 1 55 55 9 263
1984077S12149 1984 27 SP EA KATHY 1984-03-19 00:00:00 NR -12.2000 144.600 40 990 bom main 137 107 ______O___O___ -1 -12.2000 144.800 30 40 990 3.00000 -12.2000 144.400 2 55 55 8 266
1984077S12149 1984 27 SP EA KATHY 1984-03-19 03:00:00 NR -12.2267 144.233 40 990 bom main 97 63 ______O___P___ -1 -12.2000 144.400 30 40 990 3.00000 -12.2534 144.067 2 55 55 7 262
1984077S12149 1984 27 SP EA KATHY 1984-03-19 06:00:00 NR -12.3033 143.892 40 990 bom main 63 40 ______O___P___ -1 -12.3000 144.000 30 40 990 3.00000 -12.3065 143.785 2 55 55 7 261
1984077S12149 1984 27 SP EA KATHY 1984-03-19 09:00:00 NR -12.3283 143.555 40 990 bom main 40 10 ______O___P___ -1 -12.3000 143.600 30 40 990 -12.3565 143.511 2 55 55 7 267
1984077S12149 1984 27 SP EA KATHY 1984-03-19 12:00:00 TS -12.3400 143.220 30 990 bom main 10 0 O_____O___O_O_ jtwc_sh SH301984 -12.1000 143.300 30 -1 -12.4000 143.200 20 30 990 -12.4000 143.200 2 -12.1000 143.300 TC 30 45 45 8 269
1984077S12149 1984 27 SP EA KATHY 1984-03-19 15:00:00 TS -12.3352 142.773 30 998 bom main 0 0 P_____O___P_P_ SH301984 -12.0852 142.745 30 -1 -12.5000 142.800 20 30 998 -12.4203 142.773 2 -12.0852 142.745 TC 30 45 45 10 272
1984077S12149 1984 27 SP EA KATHY 1984-03-19 18:00:00 TS -12.3101 142.231 30 998 bom main 0 0 O_____O___P_O_ jtwc_sh SH301984 -12.1000 142.200 30 -1 -12.5000 142.200 20 30 998 -12.4354 142.307 2 -12.1000 142.200 TC 30 45 45 10 273
1984077S12149 1984 27 SP EA KATHY 1984-03-19 21:00:00 TS -12.2744 141.748 30 998 bom main 0 0 P_____O___P_P_ SH301984 -12.1699 141.677 30 -1 -12.3000 141.800 20 30 998 2.50000 -12.4578 141.838 2 -12.1699 141.677 TC 30 45 45 9 264
1984077S12149 1984 27 SP EA KATHY 1984-03-20 00:00:00 TS -12.4000 141.300 35 995 bom main 39 39 O_____O___O_O_ jtwc_sh SH301984 -12.3000 141.200 30 -1 -12.5000 141.400 30 35 995 3.00000 -12.5000 141.400 2 -12.3000 141.200 TC 30 49 49 9 252
1984077S12149 1984 27 SP EA KATHY 1984-03-20 03:00:00 TS -12.5377 140.918 35 995 bom main 76 76 P_____O___P_P_ SH301984 -12.4924 140.770 32 -1 -12.6000 141.100 30 35 995 3.00000 -12.5659 141.031 2 -12.4924 140.770 TC 32 49 49 8 248
1984077S12149 1984 27 SP EA KATHY 1984-03-20 06:00:00 TS -12.6887 140.549 35 992 bom main 119 119 O_____O___P_O_ jtwc_sh SH301984 -12.7000 140.400 35 0 -12.7000 140.700 30 35 992 3.00000 -12.6546 140.697 2 -12.7000 140.400 TC 35 49 49 7 247
1984077S12149 1984 27 SP EA KATHY 1984-03-20 09:00:00 TS -12.8240 140.233 40 990 bom main 153 152 P_____O___P_P_ SH301984 -12.8650 140.070 37 0 -12.8000 140.400 30 40 990 3.00000 -12.7660 140.390 2 -12.8650 140.070 TC 37 55 55 6 246
1984077S12149 1984 27 SP EA KATHY 1984-03-20 12:00:00 TS -12.9500 139.950 40 990 bom main 173 173 O_____O___O_O_ jtwc_sh SH301984 -13.0000 139.800 40 0 -12.9000 140.100 30 40 990 3.00000 -12.9000 140.100 2 -13.0000 139.800 TC 40 55 55 6 242
1984077S12149 1984 27 SP EA KATHY 1984-03-20 15:00:00 TS -13.0962 139.709 50 987 bom main 206 206 P_____O___P_P_ SH301984 -13.1075 139.577 42 0 -13.1000 139.900 30 50 987 3.50000 -13.0697 139.782 2 -13.1075 139.577 TC 42 69 69 5 237
1984077S12149 1984 27 SP EA KATHY 1984-03-20 18:00:00 TS -13.2394 139.496 50 984 bom main 228 226 O_____O___P_O_ jtwc_sh SH301984 -13.2000 139.400 45 0 -13.3000 139.700 30 50 984 3.50000 -13.2575 139.483 2 -13.2000 139.400 TC 45 69 69 5 237
1984077S12149 1984 27 SP EA KATHY 1984-03-20 21:00:00 TS -13.3604 139.297 55 980 bom main 244 240 P_____O___P_P_ SH301984 -13.3000 139.235 50 0 -13.4000 139.500 30 55 980 4.00000 -13.4416 139.217 2 -13.3000 139.235 TC 50 75 75 5 236
1984077S12149 1984 27 SP EA KATHY 1984-03-21 00:00:00 TS -13.5000 139.100 60 976 bom main 240 228 O_____O___O_O_ jtwc_sh SH301984 -13.4000 139.100 55 0 -13.6000 139.200 30 60 976 4.00000 -13.6000 139.000 4 -13.4000 139.100 TC 55 84 84 4 234
1984077S12149 1984 27 SP EA KATHY 1984-03-21 03:00:00 TS -13.5958 138.962 70 970 bom main 228 205 P_____O___P_P_ SH301984 -13.5000 139.000 62 0 -13.7000 139.000 40 70 970 4.50000 -13.6832 138.849 4 -13.5000 139.000 TC 62 99 99 3 234
1984077S12149 1984 27 SP EA KATHY 1984-03-21 06:00:00 TS -13.6856 138.837 80 965 bom main 205 191 O_____O___P_O_ jtwc_sh SH301984 -13.6000 138.900 70 1 -13.8000 138.800 40 80 965 5.00000 -13.7423 138.747 4 -13.6000 138.900 TC 70 110 110 3 234
1984077S12149 1984 27 SP EA KATHY 1984-03-21 09:00:00 TS -13.7688 138.718 90 960 bom main 191 178 P_____O___P_P_ SH301984 -13.6850 138.750 77 1 -13.9000 138.700 40 90 960 5.50000 -13.8052 138.671 4 -13.6850 138.750 TC 77 124 124 3 231
1984077S12149 1984 27 SP EA KATHY 1984-03-21 12:00:00 TS -13.8750 138.600 100 955 bom main 178 165 O_____O___O_O_ jtwc_sh SH301984 -13.8000 138.600 85 2 -14.0000 138.600 40 100 955 6.00000 -13.9000 138.600 4 -13.8000 138.600 TC 85 139 139 3 218
1984077S12149 1984 27 SP EA KATHY 1984-03-21 15:00:00 TS -14.0365 138.503 105 950 bom main 165 151 P_____O___P_P_ SH301984 -13.9850 138.500 95 2 -14.1000 138.500 40 105 950 6.00000 -14.0762 138.512 4 -13.9850 138.500 TC 95 145 145 4 207
1984077S12149 1984 27 SP EA KATHY 1984-03-21 18:00:00 TS -14.2462 138.406 110 945 bom main 151 140 O_____O___P_O_ jtwc_sh SH301984 -14.2000 138.400 105 3 -14.3000 138.400 40 110 945 6.50000 -14.2849 138.423 4 -14.2000 138.400 TC 105 154 154 5 207
1984077S12149 1984 27 SP EA KATHY 1984-03-21 21:00:00 TS -14.4541 138.280 115 942 bom main 141 131 P_____O___P_P_ SH301984 -14.4075 138.250 112 3 -14.5000 138.300 40 115 942 6.50000 -14.5012 138.322 4 -14.4075 138.250 TC 112 159 159 5 211
1984077S12149 1984 27 SP EA KATHY 1984-03-22 00:00:00 TS -14.6500 138.150 115 939 bom main 133 121 O_____O___O_O_ jtwc_sh SH301984 -14.6000 138.100 120 4 -14.7000 138.200 40 115 939 6.50000 -14.7000 138.200 4 -14.6000 138.100 TC 120 159 159 4 215
1984077S12149 1984 27 SP EA KATHY 1984-03-22 03:00:00 TS -14.8133 138.016 115 934 bom main 121 117 P_____O___P_P_ SH301984 -14.7575 138.000 122 4 -14.9000 138.000 40 115 934 7.00000 -14.8384 138.063 4 -14.7575 138.000 TC 127 159 159 4 222
1984077S12149 1984 27 SP EA KATHY 1984-03-22 05:00:00 TS -14.9060 137.908 115 929 bom main 117 117 P_____O___P_P_ SH301984 -14.8526 137.936 124 4 -15.0000 137.800 40 115 929 7.00000 -14.9189 137.958 4 -14.8526 137.936 TC 132 159 159 4 229
1984077S12149 1984 27 SP EA KATHY 1984-03-22 06:00:00 TS -14.9489 137.855 main 117 116 O_____P___P_O_ jtwc_sh SH301984 -14.9000 137.900 125 4 -15.0381 137.719 40 116 927 -14.9574 137.902 4 -14.9000 137.900 TC 135 916 4 229
1984077S12149 1984 27 SP EA KATHY 1984-03-22 08:00:00 TS -15.0334 137.757 120 924 bom main 116 108 P_____O___P_P_ SH301984 -15.0000 137.824 125 4 -15.1000 137.600 40 120 924 7.00000 -15.0337 137.781 4 -15.0000 137.824 TC 131 170 170 4 228
1984077S12149 1984 27 SP EA KATHY 1984-03-22 09:00:00 TS -15.0765 137.710 main 114 99 P_____P___P_P_ SH301984 -15.0499 137.780 125 4 -15.1333 137.564 40 120 922 -15.0727 137.716 4 -15.0499 137.780 TC 130 4 229
1984077S12149 1984 27 SP EA KATHY 1984-03-22 11:00:00 TS -15.1638 137.604 120 920 bom main 99 95 P_____O___P_P_ SH301984 -15.1500 137.670 125 4 -15.2000 137.500 40 120 920 7.00000 -15.1553 137.575 4 -15.1500 137.670 TC 126 170 170 4 232
1984077S12149 1984 27 SP EA KATHY 1984-03-22 12:00:00 TS -15.2083 137.537 main 95 81 O_____P___O_O_ jtwc_sh SH301984 -15.2000 137.600 125 4 -15.2333 137.447 40 120 920 -15.2000 137.500 4 -15.2000 137.600 TC 125 5 238
1984077S12149 1984 27 SP EA KATHY 1984-03-22 14:00:00 TS -15.3007 137.374 120 923 bom main 81 79 P_____O___P_P_ SH301984 -15.3000 137.429 125 4 -15.3000 137.300 40 120 923 7.00000 -15.3027 137.340 4 -15.3000 137.429 TC 125 170 170 6 242
1984077S12149 1984 27 SP EA KATHY 1984-03-22 15:00:00 TS -15.3456 137.275 main 79 61 P_____P___P_P_ SH301984 -15.3500 137.330 125 4 -15.3260 137.185 40 120 924 -15.3566 137.254 4 -15.3500 137.330 TC 125 6 244
1984077S12149 1984 27 SP EA KATHY 1984-03-22 17:00:00 TS -15.4423 137.075 120 928 bom main 61 46 P_____O___P_P_ SH301984 -15.4500 137.114 125 4 -15.4000 137.000 40 120 928 7.00000 -15.4692 137.074 4 -15.4500 137.114 TC 125 170 170 6 240
1984077S12149 1984 27 SP EA KATHY 1984-03-22 18:00:00 TS -15.4981 136.996 main 46 46 O_____P___P_O_ jtwc_sh SH301984 -15.5000 137.000 125 4 -15.4649 137.003 40 120 932 -15.5276 136.980 4 -15.5000 137.000 TC 125 6 234
1984077S12149 1984 27 SP EA KATHY 1984-03-22 18:30:00 TS -15.5262 136.954 120 935 bom main 46 24 P_____O___P_P_ SH301984 -15.5238 136.943 124 4 -15.5000 137.000 40 120 935 7.00000 -15.5572 136.933 4 -15.5238 136.943 TC 124 170 170 6 239
1984077S12149 1984 27 SP EA KATHY 1984-03-22 20:00:00 TS -15.6093 136.804 120 940 bom main 24 11 P_____O___P_P_ SH301984 -15.5946 136.764 121 4 -15.6000 136.900 40 120 940 7.00000 3 -15.6479 136.788 4 -15.5946 136.764 TC 121 170 170 7 241
1984077S12149 1984 27 SP EA KATHY 1984-03-22 21:00:00 TS -15.6722 136.683 main 11 0 P_____P___P_P_ SH301984 -15.6425 136.642 120 4 -15.6940 136.756 40 120 944 -15.7097 136.691 4 -15.6425 136.642 TC 120 8 242
1984077S12149 1984 27 SP EA KATHY 1984-03-22 23:00:00 TS -15.8061 136.428 120 955 bom main 0 0 P_____O___P_P_ SH301984 -15.7443 136.408 116 4 -15.9000 136.400 40 120 955 -15.8359 136.497 4 -15.7443 136.408 TC 116 170 170 8 241
1984077S12149 1984 27 SP EA KATHY 1984-03-23 00:00:00 TS -15.8686 136.321 main 0 0 O_____P___O_O_ jtwc_sh SH301984 -15.8000 136.300 115 4 -15.9745 136.284 40 118 958 -15.9000 136.400 4 -15.8000 136.300 TC 115 7 237
1984077S12149 1984 27 SP EA KATHY 1984-03-23 02:00:00 TS -15.9852 136.136 115 965 bom main 0 0 P_____O___P_P_ SH301984 -15.9145 136.112 108 3 -16.1000 136.100 40 115 965 -16.0118 136.219 4 -15.9145 136.112 TC 99 159 159 6 236
1984077S12149 1984 27 SP EA KATHY 1984-03-23 03:00:00 TS -16.0475 136.046 main 0 0 P_____P___P_P_ SH301984 -15.9774 136.027 105 3 -16.1667 136.000 40 113 968 -16.0683 136.129 4 -15.9774 136.027 TC 92 6 232
1984077S12149 1984 27 SP EA KATHY 1984-03-23 05:00:00 TS -16.1810 135.873 110 975 bom main 0 0 P_____O___P_P_ SH301984 -16.1193 135.872 98 3 -16.3000 135.800 40 110 975 -16.1855 135.948 4 -16.1193 135.872 TC 77 154 154 6 230
1984077S12149 1984 27 SP EA KATHY 1984-03-23 06:00:00 TS -16.2535 135.788 main 0 0 O_____P___P_O_ jtwc_sh SH301984 -16.2000 135.800 95 2 -16.3667 135.695 40 108 976 -16.2473 135.857 4 -16.2000 135.800 TC 70 6 225
1984077S12149 1984 27 SP EA KATHY 1984-03-23 08:00:00 TS -16.4104 135.636 105 980 bom main 0 0 P_____O___P_P_ SH301984 -16.3828 135.662 81 1 -16.5000 135.500 40 105 980 -16.3803 135.674 4 -16.3785 135.707 TC 63 145 145 6 221
1984077S12149 1984 27 SP EA KATHY 1984-03-23 09:00:00 TS -16.4956 135.565 main 0 0 P_____P___P_P_ SH301984 -16.4825 135.595 75 1 -16.5666 135.431 40 98 981 -16.4527 135.582 4 -16.4771 135.660 TC 60 7 219
1984077S12149 1984 27 SP EA KATHY 1984-03-23 11:00:00 TS -16.6706 135.412 85 985 bom main 0 0 P_____O___P_P_ SH301984 -16.6925 135.465 61 0 -16.7000 135.300 40 85 985 -16.6119 135.395 4 -16.6888 135.515 TC 53 119 119 7 223
1984077S12149 1984 27 SP EA KATHY 1984-03-23 12:00:00 TS -16.7573 135.312 main 0 0 O_____P___O_O_ jtwc_sh SH301984 -16.8000 135.400 55 0 -16.7612 135.213 40 78 986 -16.7000 135.300 2 -16.8000 135.400 TC 50 9 232
1984077S12149 1984 27 SP EA KATHY 1984-03-23 14:00:00 TS -16.9412 135.055 65 990 bom main 0 0 ______O___P_P_ SH301984 -1 -16.9000 135.000 40 65 990 -16.8944 135.107 2 -17.0291 135.059 TC 43 89 89 10 234
1984077S12149 1984 27 SI WA KATHY 1984-03-23 15:00:00 TS -17.0389 134.913 main 0 0 ______P___P_P_ SH301984 -1 -16.9975 134.869 40 60 991 -16.9999 135.010 2 -17.1459 134.843 TC 40 10 233
1984077S12149 1984 27 SI WA KATHY 1984-03-23 17:00:00 TS -17.2462 134.636 50 994 bom main 0 0 ______O___P_P_ SH301984 -1 -17.2000 134.600 30 50 994 -17.2247 134.811 2 -17.3818 134.357 TC 33 69 69 9 232
1984077S12149 1984 27 SI WA KATHY 1984-03-23 18:00:00 TS -17.3179 134.544 main 0 0 ______P___P_O_ -1 -17.2474 134.487 30 46 994 -17.3429 134.711 2 -17.5000 134.100 TC 30 1000 7 218
1984077S12149 1984 27 SI WA KATHY 1984-03-23 20:00:00 NR -17.5076 134.420 40 997 bom main 0 0 ______O___P___ -1 -17.4000 134.300 30 40 997 -17.5883 134.509 2 TC 55 55 8 210
1984077S12149 1984 27 SI WA KATHY 1984-03-23 21:00:00 NR -17.6613 134.335 main 0 0 ______P___P___ -1 -17.5815 134.226 30 38 997 -17.7145 134.407 2 TC 11 206
1984077S12149 1984 27 SI WA KATHY 1984-03-23 23:00:00 NR -18.0139 134.169 35 1000 bom main 0 0 ______O___P___ -1 -18.1000 134.100 80 35 1000 -17.9708 134.203 2 TC 49 49 10 207
1984077S12149 1984 27 SI WA KATHY 1984-03-24 00:00:00 NR -18.1000 134.100 main 0 __________O___ -1 80 -18.1000 134.100 2 7 220

Digital Typhoon Data and Search

About IBTrACS Database

This database is a web-friendly format of International Best Track Archive for Climate Stewardship (IBTrACS), a global best track data archive curated by NOAA dating back to 1842.

Updated: 2021-12-06